sensor_id;sensor_type;location;lat;lon;timestamp;pressure;altitude;pressure_sealevel;temperature;humidity
60228;BME280;46091;46.512;6.626;2023-02-01T06:13:40;98032.66;;;5.16;65.16
60228;BME280;46091;46.512;6.626;2023-02-01T06:15:43;98040.44;;;5.48;64.87
60228;BME280;46091;46.512;6.626;2023-02-01T06:17:46;98034.88;;;5.72;64.40
60228;BME280;46091;46.512;6.626;2023-02-01T06:19:48;98028.06;;;5.91;64.21
60228;BME280;46091;46.512;6.626;2023-02-01T06:21:51;98040.69;;;6.06;63.67
60228;BME280;46091;46.512;6.626;2023-02-01T06:23:54;98035.19;;;6.19;63.77
60228;BME280;46091;46.512;6.626;2023-02-01T06:26:00;98035.06;;;6.30;63.54
60228;BME280;46091;46.512;6.626;2023-02-01T06:28:04;98030.78;;;6.39;63.32
60228;BME280;46091;46.512;6.626;2023-02-01T06:30:10;98035.38;;;6.47;63.25
60228;BME280;46091;46.512;6.626;2023-02-01T06:32:14;98042.69;;;6.53;62.87
60228;BME280;46091;46.512;6.626;2023-02-01T06:34:18;98045.75;;;6.58;62.80
60228;BME280;46091;46.512;6.626;2023-02-01T06:36:23;98042.69;;;6.62;62.96
60228;BME280;46091;46.512;6.626;2023-02-01T06:38:26;98038.13;;;6.64;62.79
60228;BME280;46091;46.512;6.626;2023-02-01T06:40:29;98046.44;;;6.69;62.74
60228;BME280;46091;46.512;6.626;2023-02-01T06:42:32;98055.16;;;6.70;62.57
60228;BME280;46091;46.512;6.626;2023-02-01T06:44:34;98058.47;;;6.72;62.45
60228;BME280;46091;46.512;6.626;2023-02-01T06:46:38;98056.53;;;6.74;62.29
60228;BME280;46091;46.512;6.626;2023-02-01T06:48:41;98067.59;;;6.78;62.47
60228;BME280;46091;46.512;6.626;2023-02-01T06:50:44;98064.81;;;6.79;62.34
60228;BME280;46091;46.512;6.626;2023-02-01T06:52:47;98069.00;;;6.82;62.36
60228;BME280;46091;46.512;6.626;2023-02-01T06:54:50;98073.97;;;6.85;62.26
60228;BME280;46091;46.512;6.626;2023-02-01T06:56:53;98071.06;;;6.88;62.22
60228;BME280;46091;46.512;6.626;2023-02-01T06:58:55;98069.13;;;6.90;62.02
60228;BME280;46091;46.512;6.626;2023-02-01T07:01:03;98074.25;;;6.91;61.96
60228;BME280;46091;46.512;6.626;2023-02-01T07:03:07;98072.31;;;6.93;61.94
60228;BME280;46091;46.512;6.626;2023-02-01T07:05:10;98074.66;;;6.96;61.74
60228;BME280;46091;46.512;6.626;2023-02-01T07:07:13;98069.41;;;6.96;61.73
60228;BME280;46091;46.512;6.626;2023-02-01T07:09:16;98074.50;;;6.98;61.49
60228;BME280;46091;46.512;6.626;2023-02-01T07:11:19;98066.47;;;6.99;61.65
60228;BME280;46091;46.512;6.626;2023-02-01T07:13:22;98060.41;;;6.99;61.51
60228;BME280;46091;46.512;6.626;2023-02-01T07:15:25;98071.75;;;6.99;61.28
60228;BME280;46091;46.512;6.626;2023-02-01T07:17:28;98078.50;;;7.02;61.40
60228;BME280;46091;46.512;6.626;2023-02-01T07:19:32;98078.50;;;7.02;61.46
60228;BME280;46091;46.512;6.626;2023-02-01T07:21:35;98078.41;;;7.04;61.23
60228;BME280;46091;46.512;6.626;2023-02-01T07:23:38;98079.38;;;7.03;61.30
60228;BME280;46091;46.512;6.626;2023-02-01T07:25:41;98090.56;;;7.05;61.13
60228;BME280;46091;46.512;6.626;2023-02-01T07:27:44;98096.66;;;7.05;61.09
60228;BME280;46091;46.512;6.626;2023-02-01T07:29:47;98085.03;;;7.08;61.05
60228;BME280;46091;46.512;6.626;2023-02-01T07:31:50;98088.34;;;7.10;60.94
60228;BME280;46091;46.512;6.626;2023-02-01T07:33:54;98081.13;;;7.12;60.77
60228;BME280;46091;46.512;6.626;2023-02-01T07:36:02;98082.78;;;7.13;61.04
60228;BME280;46091;46.512;6.626;2023-02-01T07:38:06;98081.00;;;7.13;60.66
60228;BME280;46091;46.512;6.626;2023-02-01T07:40:10;98081.00;;;7.13;60.76
60228;BME280;46091;46.512;6.626;2023-02-01T07:42:13;98071.44;;;7.12;60.51
60228;BME280;46091;46.512;6.626;2023-02-01T07:44:16;98077.44;;;7.14;60.73
60228;BME280;46091;46.512;6.626;2023-02-01T07:46:23;98081.56;;;7.17;60.58
60228;BME280;46091;46.512;6.626;2023-02-01T07:48:27;98073.00;;;7.15;60.55
60228;BME280;46091;46.512;6.626;2023-02-01T07:50:30;98073.00;;;7.15;60.34
60228;BME280;46091;46.512;6.626;2023-02-01T07:52:35;98063.44;;;7.14;60.57
60228;BME280;46091;46.512;6.626;2023-02-01T07:54:37;98081.72;;;7.15;60.22
60228;BME280;46091;46.512;6.626;2023-02-01T07:56:40;98077.28;;;7.16;60.20
60228;BME280;46091;46.512;6.626;2023-02-01T07:58:47;98068.41;;;7.17;60.29
60228;BME280;46091;46.512;6.626;2023-02-01T08:00:50;98063.44;;;7.14;59.90
60228;BME280;46091;46.512;6.626;2023-02-01T08:03:11;98066.75;;;7.16;60.00
60228;BME280;46091;46.512;6.626;2023-02-01T08:05:13;98063.44;;;7.14;59.95
60228;BME280;46091;46.512;6.626;2023-02-01T08:07:16;98061.66;;;7.14;60.04
60228;BME280;46091;46.512;6.626;2023-02-01T08:09:20;98054.59;;;7.15;59.88
60228;BME280;46091;46.512;6.626;2023-02-01T08:11:27;98063.31;;;7.15;59.96
60228;BME280;46091;46.512;6.626;2023-02-01T08:13:30;98069.38;;;7.16;59.73
60228;BME280;46091;46.512;6.626;2023-02-01T08:15:33;98078.94;;;7.17;59.98
60228;BME280;46091;46.512;6.626;2023-02-01T08:17:36;98090.28;;;7.17;59.68
60228;BME280;46091;46.512;6.626;2023-02-01T08:19:38;98089.16;;;7.20;59.83
60228;BME280;46091;46.512;6.626;2023-02-01T08:21:41;98102.31;;;7.20;59.75
60228;BME280;46091;46.512;6.626;2023-02-01T08:23:44;98103.97;;;7.21;59.75
60228;BME280;46091;46.512;6.626;2023-02-01T08:25:48;98106.59;;;7.21;59.80
60228;BME280;46091;46.512;6.626;2023-02-01T08:27:51;98105.78;;;7.20;59.75
60228;BME280;46091;46.512;6.626;2023-02-01T08:29:55;98106.59;;;7.21;59.48
60228;BME280;46091;46.512;6.626;2023-02-01T08:31:59;98112.16;;;7.18;59.63
60228;BME280;46091;46.512;6.626;2023-02-01T08:34:02;98110.22;;;7.20;59.66
60228;BME280;46091;46.512;6.626;2023-02-01T08:36:08;98110.22;;;7.20;59.53
60228;BME280;46091;46.512;6.626;2023-02-01T08:38:11;98110.22;;;7.20;59.34
60228;BME280;46091;46.512;6.626;2023-02-01T08:40:14;98103.28;;;7.19;59.47
60228;BME280;46091;46.512;6.626;2023-02-01T08:42:19;98093.59;;;7.19;59.53
60228;BME280;46091;46.512;6.626;2023-02-01T08:44:39;98101.50;;;7.19;59.60
60228;BME280;46091;46.512;6.626;2023-02-01T08:46:43;98101.63;;;7.18;59.48
60228;BME280;46091;46.512;6.626;2023-02-01T08:48:47;98101.34;;;7.21;59.36
60228;BME280;46091;46.512;6.626;2023-02-01T08:50:50;98108.69;;;7.17;59.38
60228;BME280;46091;46.512;6.626;2023-02-01T08:52:53;98114.94;;;7.16;59.22
60228;BME280;46091;46.512;6.626;2023-02-01T08:54:56;98115.75;;;7.17;59.25
60228;BME280;46091;46.512;6.626;2023-02-01T08:57:01;98106.06;;;7.17;59.30
60228;BME280;46091;46.512;6.626;2023-02-01T08:59:05;98093.88;;;7.16;59.35
60228;BME280;46091;46.512;6.626;2023-02-01T09:01:13;98088.19;;;7.21;59.39
60228;BME280;46091;46.512;6.626;2023-02-01T09:03:17;98094.97;;;7.23;59.09
60228;BME280;46091;46.512;6.626;2023-02-01T09:05:20;98115.75;;;7.26;59.09
60228;BME280;46091;46.512;6.626;2023-02-01T09:07:24;98122.38;;;7.30;58.97
60228;BME280;46091;46.512;6.626;2023-02-01T09:09:27;98119.91;;;7.29;58.94
60228;BME280;46091;46.512;6.626;2023-02-01T09:11:30;98128.47;;;7.31;59.09
60228;BME280;46091;46.512;6.626;2023-02-01T09:13:34;98139.28;;;7.38;59.11
60228;BME280;46091;46.512;6.626;2023-02-01T09:15:38;98135.69;;;7.39;58.80
60228;BME280;46091;46.512;6.626;2023-02-01T09:17:41;98132.06;;;7.40;58.99
60228;BME280;46091;46.512;6.626;2023-02-01T09:19:45;98113.50;;;7.41;59.04
60228;BME280;46091;46.512;6.626;2023-02-01T09:21:48;98131.34;;;7.47;59.04
60228;BME280;46091;46.512;6.626;2023-02-01T09:23:51;98135.66;;;7.48;58.88
60228;BME280;46091;46.512;6.626;2023-02-01T09:25:58;98152.00;;;7.52;58.75
60228;BME280;46091;46.512;6.626;2023-02-01T09:28:01;98159.06;;;7.51;58.85
60228;BME280;46091;46.512;6.626;2023-02-01T09:30:08;98158.91;;;7.53;58.90
60228;BME280;46091;46.512;6.626;2023-02-01T09:32:13;98151.41;;;7.58;58.85
60228;BME280;46091;46.512;6.626;2023-02-01T09:34:16;98150.88;;;7.64;58.93
60228;BME280;46091;46.512;6.626;2023-02-01T09:36:20;98163.03;;;7.75;58.73
60228;BME280;46091;46.512;6.626;2023-02-01T09:38:22;98167.72;;;7.81;58.57
60228;BME280;46091;46.512;6.626;2023-02-01T09:40:27;98160.25;;;7.86;58.51
60228;BME280;46091;46.512;6.626;2023-02-01T09:42:44;98162.44;;;7.91;58.57
60228;BME280;46091;46.512;6.626;2023-02-01T09:45:03;98167.81;;;7.99;58.37
60228;BME280;46091;46.512;6.626;2023-02-01T09:47:12;98167.38;;;8.03;58.27
60228;BME280;46091;46.512;6.626;2023-02-01T09:49:20;98167.38;;;8.03;58.14
60228;BME280;46091;46.512;6.626;2023-02-01T09:51:27;98167.13;;;8.06;58.35
60228;BME280;46091;46.512;6.626;2023-02-01T09:53:35;98169.31;;;8.11;58.27
60228;BME280;46091;46.512;6.626;2023-02-01T09:55:42;98183.84;;;8.15;58.44
60228;BME280;46091;46.512;6.626;2023-02-01T09:57:50;98183.00;;;8.14;58.13
60228;BME280;46091;46.512;6.626;2023-02-01T10:00:00;98185.38;;;8.17;58.03
60228;BME280;46091;46.512;6.626;2023-02-01T10:02:12;98180.94;;;8.18;57.80
60228;BME280;46091;46.512;6.626;2023-02-01T10:04:17;98183.28;;;8.21;58.02
60228;BME280;46091;46.512;6.626;2023-02-01T10:06:41;98182.31;;;8.22;58.05
60228;BME280;46091;46.512;6.626;2023-02-01T10:09:09;98171.47;;;8.25;58.06
60228;BME280;46091;46.512;6.626;2023-02-01T10:11:23;98178.94;;;8.30;57.72
60228;BME280;46091;46.512;6.626;2023-02-01T10:13:40;98189.19;;;8.33;57.80
60228;BME280;46091;46.512;6.626;2023-02-01T10:15:55;98192.53;;;8.35;57.53
60228;BME280;46091;46.512;6.626;2023-02-01T10:18:06;98188.94;;;8.36;57.54
60228;BME280;46091;46.512;6.626;2023-02-01T10:20:21;98198.06;;;8.32;57.76
60228;BME280;46091;46.512;6.626;2023-02-01T10:22:36;98192.81;;;8.32;57.69
60228;BME280;46091;46.512;6.626;2023-02-01T10:25:04;98188.22;;;8.34;57.73
60228;BME280;46091;46.512;6.626;2023-02-01T10:27:17;98185.47;;;8.35;57.44
60228;BME280;46091;46.512;6.626;2023-02-01T10:29:27;98178.38;;;8.36;57.59
60228;BME280;46091;46.512;6.626;2023-02-01T10:31:36;98174.09;;;8.35;57.70
60228;BME280;46091;46.512;6.626;2023-02-01T10:33:44;98168.41;;;8.30;57.44
60228;BME280;46091;46.512;6.626;2023-02-01T10:35:53;98165.94;;;8.28;57.37
60228;BME280;46091;46.512;6.626;2023-02-01T10:38:00;98160.94;;;8.25;57.50
60228;BME280;46091;46.512;6.626;2023-02-01T10:40:13;98172.44;;;8.24;57.36
60228;BME280;46091;46.512;6.626;2023-02-01T10:42:18;98170.94;;;8.22;57.59
60228;BME280;46091;46.512;6.626;2023-02-01T10:44:27;98167.75;;;8.18;57.46
60228;BME280;46091;46.512;6.626;2023-02-01T10:46:33;98162.66;;;8.16;57.47
60228;BME280;46091;46.512;6.626;2023-02-01T10:48:37;98168.19;;;8.13;57.30
60228;BME280;46091;46.512;6.626;2023-02-01T10:50:48;98153.34;;;8.12;57.45
60228;BME280;46091;46.512;6.626;2023-02-01T10:52:56;98161.56;;;8.09;57.33
60228;BME280;46091;46.512;6.626;2023-02-01T10:55:32;98159.75;;;8.10;57.21
60228;BME280;46091;46.512;6.626;2023-02-01T10:57:35;98150.03;;;8.10;57.39
60228;BME280;46091;46.512;6.626;2023-02-01T10:59:38;98147.41;;;8.10;57.39
60228;BME280;46091;46.512;6.626;2023-02-01T11:01:42;98144.47;;;8.13;57.32
60228;BME280;46091;46.512;6.626;2023-02-01T11:03:52;98148.75;;;8.14;57.35
60228;BME280;46091;46.512;6.626;2023-02-01T11:05:56;98138.38;;;8.13;56.98
60228;BME280;46091;46.512;6.626;2023-02-01T11:08:00;98126.75;;;8.15;57.05
60228;BME280;46091;46.512;6.626;2023-02-01T11:10:05;98116.31;;;8.14;56.79
60228;BME280;46091;46.512;6.626;2023-02-01T11:12:24;98114.66;;;8.13;56.85
60228;BME280;46091;46.512;6.626;2023-02-01T11:14:34;98120.25;;;8.10;56.76
60228;BME280;46091;46.512;6.626;2023-02-01T11:16:38;98123.16;;;8.07;57.14
60228;BME280;46091;46.512;6.626;2023-02-01T11:18:41;98119.03;;;8.04;56.79
60228;BME280;46091;46.512;6.626;2023-02-01T11:20:45;98112.78;;;8.05;56.95
60228;BME280;46091;46.512;6.626;2023-02-01T11:22:54;98110.97;;;8.06;56.94
60228;BME280;46091;46.512;6.626;2023-02-01T11:25:00;98111.97;;;8.05;57.10
60228;BME280;46091;46.512;6.626;2023-02-01T11:27:06;98101.13;;;8.08;56.73
60228;BME280;46091;46.512;6.626;2023-02-01T11:29:28;98089.16;;;8.13;56.71
60228;BME280;46091;46.512;6.626;2023-02-01T11:31:34;98086.38;;;8.15;56.59
60228;BME280;46091;46.512;6.626;2023-02-01T11:33:41;98088.19;;;8.14;56.79
60228;BME280;46091;46.512;6.626;2023-02-01T11:35:47;98082.78;;;8.16;56.45
60228;BME280;46091;46.512;6.626;2023-02-01T11:37:55;98074.75;;;8.17;56.36
60228;BME280;46091;46.512;6.626;2023-02-01T11:40:08;98078.06;;;8.20;56.50
60228;BME280;46091;46.512;6.626;2023-02-01T11:42:26;98067.50;;;8.20;56.57
60228;BME280;46091;46.512;6.626;2023-02-01T11:44:35;98056.16;;;8.19;56.61
60228;BME280;46091;46.512;6.626;2023-02-01T11:46:38;98059.47;;;8.21;56.39
60228;BME280;46091;46.512;6.626;2023-02-01T11:48:41;98064.06;;;8.19;56.54
60228;BME280;46091;46.512;6.626;2023-02-01T11:50:51;98066.53;;;8.21;56.46
60228;BME280;46091;46.512;6.626;2023-02-01T11:53:15;98062.25;;;8.20;56.18
60228;BME280;46091;46.512;6.626;2023-02-01T11:55:36;98060.28;;;8.22;56.11
60228;BME280;46091;46.512;6.626;2023-02-01T11:57:52;98060.28;;;8.22;56.26
60228;BME280;46091;46.512;6.626;2023-02-01T12:00:11;98050.28;;;8.25;56.31
60228;BME280;46091;46.512;6.626;2023-02-01T12:02:41;98044.72;;;8.28;56.08
60228;BME280;46091;46.512;6.626;2023-02-01T12:05:00;98045.25;;;8.32;55.86
60228;BME280;46091;46.512;6.626;2023-02-01T12:07:14;98038.03;;;8.34;56.15
60228;BME280;46091;46.512;6.626;2023-02-01T12:09:40;98044.97;;;8.35;56.12
60228;BME280;46091;46.512;6.626;2023-02-01T12:11:54;98045.81;;;8.35;55.93
60228;BME280;46091;46.512;6.626;2023-02-01T12:14:10;98046.63;;;8.36;56.11
60228;BME280;46091;46.512;6.626;2023-02-01T12:16:28;98048.44;;;8.35;55.80
60228;BME280;46091;46.512;6.626;2023-02-01T12:18:44;98051.63;;;8.39;55.98
60228;BME280;46091;46.512;6.626;2023-02-01T12:21:06;98048.84;;;8.40;55.92
60228;BME280;46091;46.512;6.626;2023-02-01T12:23:21;98054.78;;;8.42;55.71
60228;BME280;46091;46.512;6.626;2023-02-01T12:25:37;98045.06;;;8.43;55.86
60228;BME280;46091;46.512;6.626;2023-02-01T12:28:04;98044.78;;;8.46;55.86
60228;BME280;46091;46.512;6.626;2023-02-01T12:30:17;98049.06;;;8.47;55.69
60228;BME280;46091;46.512;6.626;2023-02-01T12:32:44;98045.44;;;8.48;55.79
60228;BME280;46091;46.512;6.626;2023-02-01T12:35:12;98040.16;;;8.48;55.76
60228;BME280;46091;46.512;6.626;2023-02-01T12:37:24;98038.38;;;8.49;55.85
60228;BME280;46091;46.512;6.626;2023-02-01T12:39:32;98039.19;;;8.49;55.77
60228;BME280;46091;46.512;6.626;2023-02-01T12:41:48;98024.34;;;8.48;55.37
60228;BME280;46091;46.512;6.626;2023-02-01T12:43:57;98026.00;;;8.49;55.28
60228;BME280;46091;46.512;6.626;2023-02-01T12:46:04;98012.72;;;8.51;55.14
60228;BME280;46091;46.512;6.626;2023-02-01T12:48:22;98018.81;;;8.51;55.16
60228;BME280;46091;46.512;6.626;2023-02-01T12:50:32;98009.94;;;8.52;55.11
60228;BME280;46091;46.512;6.626;2023-02-01T12:52:44;98009.78;;;8.54;55.35
60228;BME280;46091;46.512;6.626;2023-02-01T12:54:53;98010.75;;;8.53;55.09
60228;BME280;46091;46.512;6.626;2023-02-01T12:57:01;98011.56;;;8.53;54.90
60228;BME280;46091;46.512;6.626;2023-02-01T12:59:17;98006.97;;;8.55;54.90
60228;BME280;46091;46.512;6.626;2023-02-01T13:01:26;98003.34;;;8.56;54.82
60228;BME280;46091;46.512;6.626;2023-02-01T13:03:35;97992.81;;;8.56;54.50
60228;BME280;46091;46.512;6.626;2023-02-01T13:05:47;97993.66;;;8.57;54.61
60228;BME280;46091;46.512;6.626;2023-02-01T13:07:55;98002.06;;;8.60;54.54
60228;BME280;46091;46.512;6.626;2023-02-01T13:10:04;98007.34;;;8.60;54.68
60228;BME280;46091;46.512;6.626;2023-02-01T13:12:14;98010.69;;;8.62;54.33
60228;BME280;46091;46.512;6.626;2023-02-01T13:14:27;98014.31;;;8.61;54.13
60228;BME280;46091;46.512;6.626;2023-02-01T13:16:33;97994.16;;;8.60;54.22
60228;BME280;46091;46.512;6.626;2023-02-01T13:18:39;97997.66;;;8.61;54.51
60228;BME280;46091;46.512;6.626;2023-02-01T13:20:47;97994.03;;;8.62;54.55
60228;BME280;46091;46.512;6.626;2023-02-01T13:22:57;97985.97;;;8.63;54.42
60228;BME280;46091;46.512;6.626;2023-02-01T13:25:04;97980.84;;;8.62;53.98
60228;BME280;46091;46.512;6.626;2023-02-01T13:27:12;97971.41;;;8.59;54.10
60228;BME280;46091;46.512;6.626;2023-02-01T13:29:18;97972.13;;;8.61;53.96
60228;BME280;46091;46.512;6.626;2023-02-01T13:31:47;97974.59;;;8.63;54.20
60228;BME280;46091;46.512;6.626;2023-02-01T13:36:43;97954.50;;;8.62;54.16
60228;BME280;46091;46.512;6.626;2023-02-01T13:41:30;97943.25;;;8.60;54.09
60228;BME280;46091;46.512;6.626;2023-02-01T13:43:35;97942.44;;;8.59;54.09
60228;BME280;46091;46.512;6.626;2023-02-01T13:45:46;97944.06;;;8.60;53.99
60228;BME280;46091;46.512;6.626;2023-02-01T13:47:54;97946.72;;;8.60;54.07
60228;BME280;46091;46.512;6.626;2023-02-01T13:50:01;97943.13;;;8.61;54.11
60228;BME280;46091;46.512;6.626;2023-02-01T13:52:05;97937.69;;;8.63;54.22
60228;BME280;46091;46.512;6.626;2023-02-01T13:54:24;97938.53;;;8.63;54.00
60228;BME280;46091;46.512;6.626;2023-02-01T13:56:39;97948.91;;;8.65;53.82
60228;BME280;46091;46.512;6.626;2023-02-01T13:58:44;97955.00;;;8.65;53.74
60228;BME280;46091;46.512;6.626;2023-02-01T14:00:49;97963.22;;;8.62;53.84
60228;BME280;46091;46.512;6.626;2023-02-01T14:03:22;97955.47;;;8.61;53.94
60228;BME280;46091;46.512;6.626;2023-02-01T14:08:45;97949.06;;;8.63;53.82
60228;BME280;46091;46.512;6.626;2023-02-01T14:10:55;97952.53;;;8.64;54.00
60228;BME280;46091;46.512;6.626;2023-02-01T14:13:04;97953.03;;;8.67;53.85
60228;BME280;46091;46.512;6.626;2023-02-01T14:15:25;97952.06;;;8.68;53.88
60228;BME280;46091;46.512;6.626;2023-02-01T14:17:32;97940.38;;;8.71;53.92
60228;BME280;46091;46.512;6.626;2023-02-01T14:19:37;97954.09;;;8.74;53.83
60228;BME280;46091;46.512;6.626;2023-02-01T14:21:47;97948.66;;;8.76;53.45
60228;BME280;46091;46.512;6.626;2023-02-01T14:23:57;97949.50;;;8.77;53.59
60228;BME280;46091;46.512;6.626;2023-02-01T14:26:10;97945.88;;;8.78;53.74
60228;BME280;46091;46.512;6.626;2023-02-01T14:28:24;97948.03;;;8.82;53.61
60228;BME280;46091;46.512;6.626;2023-02-01T14:30:27;97942.47;;;8.85;53.31
60228;BME280;46091;46.512;6.626;2023-02-01T14:32:31;97943.31;;;8.86;53.41
60228;BME280;46091;46.512;6.626;2023-02-01T14:34:39;97944.97;;;8.87;53.35
60228;BME280;46091;46.512;6.626;2023-02-01T14:36:56;97943.31;;;8.86;53.60
60228;BME280;46091;46.512;6.626;2023-02-01T14:39:00;97935.22;;;8.87;53.56
60228;BME280;46091;46.512;6.626;2023-02-01T14:41:36;97937.72;;;8.89;53.29
60228;BME280;46091;46.512;6.626;2023-02-01T14:43:50;97924.88;;;8.94;53.33
60228;BME280;46091;46.512;6.626;2023-02-01T14:45:53;97929.88;;;8.97;53.18
60228;BME280;46091;46.512;6.626;2023-02-01T14:50:39;97946.81;;;8.94;53.14
60228;BME280;46091;46.512;6.626;2023-02-01T14:52:45;97943.34;;;8.94;53.38
60228;BME280;46091;46.512;6.626;2023-02-01T14:54:53;97938.06;;;8.94;53.01
60228;BME280;46091;46.512;6.626;2023-02-01T14:56:57;97944.03;;;8.96;53.16
60228;BME280;46091;46.512;6.626;2023-02-01T14:59:06;97943.72;;;8.99;52.96
60228;BME280;46091;46.512;6.626;2023-02-01T15:01:18;97941.91;;;8.99;53.04
60228;BME280;46091;46.512;6.626;2023-02-01T15:03:36;97932.03;;;9.01;52.73
60228;BME280;46091;46.512;6.626;2023-02-01T15:05:43;97940.44;;;9.05;53.07
60228;BME280;46091;46.512;6.626;2023-02-01T15:07:46;97936.00;;;9.05;53.09
60228;BME280;46091;46.512;6.626;2023-02-01T15:09:50;97941.44;;;9.04;52.82
60228;BME280;46091;46.512;6.626;2023-02-01T15:11:57;97945.59;;;9.07;52.87
60228;BME280;46091;46.512;6.626;2023-02-01T15:14:01;97948.06;;;9.08;53.07
60228;BME280;46091;46.512;6.626;2023-02-01T15:16:09;97944.44;;;9.09;52.84
60228;BME280;46091;46.512;6.626;2023-02-01T15:18:16;97946.09;;;9.10;52.84
60228;BME280;46091;46.512;6.626;2023-02-01T15:20:22;97956.50;;;9.12;52.88
60228;BME280;46091;46.512;6.626;2023-02-01T15:22:29;97959.13;;;9.12;53.09
60228;BME280;46091;46.512;6.626;2023-02-01T15:24:33;97968.84;;;9.11;52.82
60228;BME280;46091;46.512;6.626;2023-02-01T15:26:36;97971.50;;;9.11;52.74
60228;BME280;46091;46.512;6.626;2023-02-01T15:28:39;97970.50;;;9.12;52.72
60228;BME280;46091;46.512;6.626;2023-02-01T15:30:52;97973.00;;;9.14;52.67
60228;BME280;46091;46.512;6.626;2023-02-01T15:33:05;97977.44;;;9.13;52.72
60228;BME280;46091;46.512;6.626;2023-02-01T15:35:37;97962.59;;;9.12;52.96
60228;BME280;46091;46.512;6.626;2023-02-01T15:37:43;97967.56;;;9.15;52.87
60228;BME280;46091;46.512;6.626;2023-02-01T15:40:19;97956.66;;;9.10;52.83
60228;BME280;46091;46.512;6.626;2023-02-01T15:42:23;97968.53;;;9.14;52.78
60228;BME280;46091;46.512;6.626;2023-02-01T15:44:33;97975.47;;;9.15;52.77
60228;BME280;46091;46.512;6.626;2023-02-01T15:46:39;97988.38;;;9.18;52.81
60228;BME280;46091;46.512;6.626;2023-02-01T15:48:45;97996.94;;;9.20;52.71
60228;BME280;46091;46.512;6.626;2023-02-01T15:50:49;97996.13;;;9.20;52.45
60228;BME280;46091;46.512;6.626;2023-02-01T15:52:54;97997.63;;;9.22;52.41
60228;BME280;46091;46.512;6.626;2023-02-01T15:55:00;97993.31;;;9.21;52.67
60228;BME280;46091;46.512;6.626;2023-02-01T15:57:04;97990.69;;;9.21;52.67
60228;BME280;46091;46.512;6.626;2023-02-01T15:59:15;97994.97;;;9.22;52.63
60228;BME280;46091;46.512;6.626;2023-02-01T16:01:20;97994.00;;;9.23;52.81
60228;BME280;46091;46.512;6.626;2023-02-01T16:03:26;97999.94;;;9.25;52.47
60228;BME280;46091;46.512;6.626;2023-02-01T16:05:33;98000.59;;;9.27;52.94
60228;BME280;46091;46.512;6.626;2023-02-01T16:07:37;98009.22;;;9.29;52.61
60228;BME280;46091;46.512;6.626;2023-02-01T16:09:52;98004.78;;;9.30;52.80
60228;BME280;46091;46.512;6.626;2023-02-01T16:11:57;98011.69;;;9.31;52.78
60228;BME280;46091;46.512;6.626;2023-02-01T16:14:01;98017.13;;;9.29;52.54
60228;BME280;46091;46.512;6.626;2023-02-01T16:16:04;98020.72;;;9.28;52.90
60228;BME280;46091;46.512;6.626;2023-02-01T16:18:10;98022.41;;;9.29;52.76
60228;BME280;46091;46.512;6.626;2023-02-01T16:20:13;98029.19;;;9.32;52.90
60228;BME280;46091;46.512;6.626;2023-02-01T16:22:16;98028.03;;;9.34;52.83
60228;BME280;46091;46.512;6.626;2023-02-01T16:24:19;98027.06;;;9.36;52.43
60228;BME280;46091;46.512;6.626;2023-02-01T16:26:25;98035.13;;;9.34;52.75
60228;BME280;46091;46.512;6.626;2023-02-01T16:28:28;98035.97;;;9.34;52.73
60228;BME280;46091;46.512;6.626;2023-02-01T16:30:31;98036.78;;;9.35;52.75
60228;BME280;46091;46.512;6.626;2023-02-01T16:32:35;98034.31;;;9.33;52.63
60228;BME280;46091;46.512;6.626;2023-02-01T16:34:39;98031.97;;;9.30;52.64
60228;BME280;46091;46.512;6.626;2023-02-01T16:36:42;98031.16;;;9.30;52.92
60228;BME280;46091;46.512;6.626;2023-02-01T16:38:46;98031.16;;;9.30;52.84
60228;BME280;46091;46.512;6.626;2023-02-01T16:40:50;98033.63;;;9.31;52.81
60228;BME280;46091;46.512;6.626;2023-02-01T16:42:55;98024.22;;;9.29;52.72
60228;BME280;46091;46.512;6.626;2023-02-01T16:44:57;98038.91;;;9.31;52.83
60228;BME280;46091;46.512;6.626;2023-02-01T16:47:01;98041.72;;;9.30;53.10
60228;BME280;46091;46.512;6.626;2023-02-01T16:49:03;98049.75;;;9.28;52.90
60228;BME280;46091;46.512;6.626;2023-02-01T16:51:09;98051.44;;;9.29;52.92
60228;BME280;46091;46.512;6.626;2023-02-01T16:53:14;98044.47;;;9.28;53.12
60228;BME280;46091;46.512;6.626;2023-02-01T16:55:20;98046.16;;;9.29;53.39
60228;BME280;46091;46.512;6.626;2023-02-01T16:57:24;98058.66;;;9.27;53.02
60228;BME280;46091;46.512;6.626;2023-02-01T16:59:30;98054.22;;;9.28;53.20
60228;BME280;46091;46.512;6.626;2023-02-01T17:01:33;98064.75;;;9.28;53.24
60228;BME280;46091;46.512;6.626;2023-02-01T17:03:37;98061.31;;;9.27;53.20
60228;BME280;46091;46.512;6.626;2023-02-01T17:05:40;98057.00;;;9.26;53.12
60228;BME280;46091;46.512;6.626;2023-02-01T17:07:42;98054.53;;;9.25;53.37
60228;BME280;46091;46.512;6.626;2023-02-01T17:09:45;98053.69;;;9.24;53.05
60228;BME280;46091;46.512;6.626;2023-02-01T17:11:48;98056.50;;;9.23;53.31
60228;BME280;46091;46.512;6.626;2023-02-01T17:13:51;98065.25;;;9.23;53.46
60228;BME280;46091;46.512;6.626;2023-02-01T17:15:59;98068.88;;;9.22;53.09
60228;BME280;46091;46.512;6.626;2023-02-01T17:18:03;98063.59;;;9.22;53.10
60228;BME280;46091;46.512;6.626;2023-02-01T17:20:06;98056.66;;;9.21;53.32
60228;BME280;46091;46.512;6.626;2023-02-01T17:22:09;98052.38;;;9.20;53.19
60228;BME280;46091;46.512;6.626;2023-02-01T17:24:13;98056.97;;;9.18;53.16
60228;BME280;46091;46.512;6.626;2023-02-01T17:26:16;98059.59;;;9.18;53.48
60228;BME280;46091;46.512;6.626;2023-02-01T17:28:19;98059.59;;;9.18;53.41
60228;BME280;46091;46.512;6.626;2023-02-01T17:30:22;98051.69;;;9.18;53.09
60228;BME280;46091;46.512;6.626;2023-02-01T17:32:26;98050.00;;;9.17;53.29
60228;BME280;46091;46.512;6.626;2023-02-01T17:34:29;98057.25;;;9.15;53.28
60228;BME280;46091;46.512;6.626;2023-02-01T17:36:32;98063.81;;;9.11;53.22
60228;BME280;46091;46.512;6.626;2023-02-01T17:38:36;98069.09;;;9.11;53.41
60228;BME280;46091;46.512;6.626;2023-02-01T17:40:39;98074.38;;;9.11;53.51
60228;BME280;46091;46.512;6.626;2023-02-01T17:42:42;98075.72;;;9.15;53.43
60228;BME280;46091;46.512;6.626;2023-02-01T17:44:45;98065.84;;;9.17;53.53
60228;BME280;46091;46.512;6.626;2023-02-01T17:46:48;98058.63;;;9.19;53.47
60228;BME280;46091;46.512;6.626;2023-02-01T17:48:52;98057.63;;;9.20;53.28